Terminal Aerodrome Forecast
Issued by NWS

Home | Current Version | Previous Version | Text Only | Print | Product List | Glossary On
Versions: 1 2 3 4 5 6 7 8 9 10 11 12 13 14
722
FTUS44 KJAN 011516 AAB
TAFHKS
TAF AMD
KHKS 011516Z 0115/0212 20010KT 5SM -RA BR SCT009 BKN080 OVC090
     FM011700 16008KT P6SM VCSH BKN050
     FM020000 15007KT P6SM BKN060
     FM020800 16005KT P6SM VCSH BKN015 OVC025=

USA.gov is the U.S. government's official web portal to all federal, state and local government web resources and services.